Joliet, IL

1:48 PM CST on December 21, 2014 (GMT -0600)
jolietwx.com | Change Station
CLOSE
Current Station
Personal Weather Station
Location: Joliet, IL
Elevation: 648 ft
Nearby Weather Stations

Elev 648 ft 41.55 °N, 88.11 °W | Updated 9 minutes ago

Overcast
Overcast
38.0 °F
Feels Like 38 °F
N
3.0
Wind Variable Wind from SSE
Gusts 14.0 mph

Today
High -- | Low -- °F
--% Chance of Precip.
Yesterday
High -- | Low -- °F
Precip. -- in
7:15 AM 4:25 PM
Waning Crescent, 0% visible
Pressure 30.11 in
Visibility 10.0 miles
Clouds Scattered Clouds 1900 ft
Overcast 3900 ft
Windchill 38 °F
Dew Point 32 °F
Humidity 79%
Rainfall 0.00 in
Snow Depth Not available.
UV 0 out of 12
Pollen .10 out of 12
Air Quality Not available.
Flu Activity Not available.
METAR KJOT 211935Z AUTO 17009KT 10SM SCT019 OVC039 03/M01 A3011 RMK AO2 T00301012

More Conditions Fewer Conditions

Pressure 30.11 in
Visibility 10.0 miles
Clouds Scattered Clouds 1900 ft
Overcast 3900 ft
Windchill 38 °F
Dew Point 32 °F
Humidity 79%
Rainfall 0.00 in
Snow Depth Not available.
UV 0 out of 12
Pollen .10 out of 12
Air Quality Not available.
Flu Activity Not available.
METAR KJOT 211935Z AUTO 17009KT 10SM SCT019 OVC039 03/M01 A3011 RMK AO2 T00301012

More Conditions Fewer Conditions

10-Day Weather Forecast

Almanac

Astronomy

Dec. 21, 2014 Rise Set
Actual Time
Civil Twilight
Nautical Twilight
Astronomical Twilight
Moon
Length of Visible Light
Length of Day
Tomorrow will be .
, % of the Moon is Illuminated

Today's Extremes

State Highs State Lows

Community

WunderPhotos

Upload Photos

1,779,469 photos uploaded!

WunderBlogs® & News

Nearby

Air Quality

  Air Quality AQ Index Pollutant
Not available.

Snow Depth

Station Depth Elevation

Earthquake Activity

City Distance Mag. Time & Date
Minimum magnitude displayed is 2.5.

Coastal Water Temperatures

Place Temperature

Nearby Weather Stations